• Join FlightAware (Why Join?)
  • Login
  • US Flag 
02:48AM EDT


 

Airport Tracker/Info


-or-


 

Live Flight TrackerFlight Track Log ✈ N68ER ✈ 15-Oct-2013 ✈ KSDL - KMSO

Flight Track Log - Related Links

Times and Time Zones

All times are in EDT time to prevent confusion due to time zone crossing. See the N68ER flight status page for this flight to view local times or setup timezone preferences in your user account.

Time Position Orientation Groundspeed Altitude Reporting Facility
EDT Latitude Longitude Course Direction KTS MPH feet Rate Location/Type
08:33PM 33.6167 -111.9167 287° West 139 160 2,300  Level Phoenix TRACON
08:34PM 33.6333 -111.9833 287° West 179 206 5,000 2,220 Climbing Phoenix TRACON
08:36PM 33.6964 -111.9667 12° North 212 244 8,200 2,220 Climbing Albuquerque Center
08:37PM 33.7486 -111.9317 29° Northeast 217 250 10,500 1,920 Climbing Albuquerque Center
08:38PM 33.8056 -111.8942 29° Northeast 230 265 12,200 1,620 Climbing Albuquerque Center
08:39PM 33.8681 -111.8522 29° Northeast 255 293 13,900 2,040 Climbing Albuquerque Center
08:40PM 33.9450 -111.8006 29° Northeast 265 305 16,500 2,340 Climbing Albuquerque Center
08:41PM 34.0136 -111.7542 29° Northeast 262 302 18,800 1,920 Climbing Albuquerque Center
08:42PM 34.0794 -111.7156 26° Northeast 264 304 20,500 1,560 Climbing Albuquerque Center
08:43PM 34.1503 -111.6889 17° North 268 308 22,100 1,560 Climbing Albuquerque Center
08:44PM 34.2272 -111.6603 17° North 278 320 23,800 1,440 Climbing Albuquerque Center
08:45PM 34.3033 -111.6306 18° North 285 328 25,100 1,260 Climbing Albuquerque Center
08:46PM 34.3819 -111.5989 18° North 293 337 26,500 1,260 Climbing Albuquerque Center
08:47PM 34.4656 -111.5667 18° North 308 354 27,700 720 Climbing Albuquerque Center
08:48PM 34.5544 -111.5386 15° North 326 375 28,000 120 Climbing Albuquerque Center
08:49PM 34.6494 -111.5578 351° North 343 395 28,000 480 Level Albuquerque Center
08:50PM 34.7486 -111.5631 357° North 353 406 29,000 1,440 Climbing Albuquerque Center
08:51PM 34.8631 -111.5711 357° North 347 399 31,000 1,980 Climbing Albuquerque Center
08:52PM 34.9456 -111.5764 357° North 311 358 33,100 1,860 Climbing Albuquerque Center
08:53PM 35.0203 -111.5806 357° North 281 323 34,900 1,320 Climbing Albuquerque Center
08:54PM 35.0928 -111.5850 357° North 266 306 35,900 480 Climbing Albuquerque Center
08:55PM 35.1683 -111.5914 356° North 268 308 36,000  Climbing Albuquerque Center
08:56PM 35.2556 -111.5972 357° North 301 346 36,000  Level Albuquerque Center
08:57PM 35.3553 -111.6028 357° North 328 377 36,000  Level Albuquerque Center
08:58PM 35.4542 -111.6094 357° North 349 402 36,000  Level Albuquerque Center
08:59PM 35.5572 -111.6144 358° North 366 421 36,000  Level Albuquerque Center
09:00PM 35.6625 -111.6222 357° North 377 434 36,000  Level Albuquerque Center
09:01PM 35.7519 -111.6261 358° North 386 444 36,000  Level Los Angeles Center
09:02PM 35.8528 -111.6333 357° North 381 438 36,000  Level Los Angeles Center
09:02PM 35.9217 -111.6381 357° North 385 443 36,000  Level Denver Center
09:03PM 36.0253 -111.6442 357° North 378 435 36,000  Level Denver Center
09:05PM 36.1289 -111.6511 357° North 375 432 36,000  Level Denver Center
09:06PM 36.2506 -111.6592 357° North 368 423 36,000  Level Denver Center
09:07PM 36.3492 -111.6664 357° North 359 413 36,000  Level Denver Center
09:08PM 36.4497 -111.6717 358° North 361 415 36,000  Level Denver Center
09:09PM 36.5492 -111.6781 357° North 360 414 36,000  Level Denver Center
09:10PM 36.6472 -111.6858 356° North 355 409 36,000  Level Denver Center
09:11PM 36.7456 -111.6908 358° North 355 409 36,000  Level Denver Center
09:12PM 36.8439 -111.6981 357° North 354 407 36,000  Level Denver Center
09:13PM 37.0006 -111.7092 357° North 354 407 36,000  Level Los Angeles Center
09:14PM 37.1014 -111.7139 358° North 362 417 36,000  Level Los Angeles Center
09:15PM 37.1628 -111.7183 357° North 363 418 36,000  Level Denver Center
09:16PM 37.2622 -111.7258 357° North 362 417 36,000  Level Denver Center
09:17PM 37.3614 -111.7336 356° North 360 414 36,000  Level Denver Center
09:18PM 37.4611 -111.7392 357° North 361 415 36,000  Level Denver Center
09:19PM 37.5794 -111.7481 357° North 358 412 36,000  Level Denver Center
09:20PM 37.6800 -111.7547 357° North 361 415 36,000  Level Denver Center
09:21PM 37.7789 -111.7619 357° North 359 413 36,000  Level Denver Center
09:22PM 37.8983 -111.7708 357° North 359 413 36,000  Level Salt Lake Center
09:23PM 37.9978 -111.7772 357° North 359 413 36,000  Level Salt Lake Center
09:24PM 38.0972 -111.7850 356° North 359 413 36,000  Level Salt Lake Center
09:25PM 38.1964 -111.7925 357° North 359 413 36,000  Level Salt Lake Center
09:26PM 38.2944 -111.7983 357° North 355 409 36,000  Level Salt Lake Center
09:27PM 38.3928 -111.8056 357° North 355 409 36,000  Level Salt Lake Center
09:28PM 38.4906 -111.8128 357° North 353 406 36,000  Level Salt Lake Center
09:29PM 38.6072 -111.8217 357° North 352 405 36,000  Level Salt Lake Center
09:30PM 38.7044 -111.8286 357° North 351 404 36,000  Level Salt Lake Center
09:31PM 38.8022 -111.8356 357° North 352 405 36,000  Level Salt Lake Center
09:32PM 38.8983 -111.8414 357° North 349 402 36,000  Level Salt Lake Center
09:33PM 38.9958 -111.8483 357° North 351 404 36,000  Level Salt Lake Center
09:34PM 39.0919 -111.8547 357° North 348 400 36,000  Level Salt Lake Center
09:35PM 39.2067 -111.8653 356° North 345 397 36,000  Level Salt Lake Center
09:37PM 39.3008 -111.8928 347° North 346 398 36,000  Level Salt Lake Center
09:38PM 39.3956 -111.9167 349° North 346 398 36,000  Level Salt Lake Center
09:39PM 39.4903 -111.9417 348° North 348 400 36,000  Level Salt Lake Center
09:40PM 39.5842 -111.9653 349° North 345 397 36,000  Level Salt Lake Center
09:41PM 39.6786 -111.9892 349° North 347 399 36,000  Level Salt Lake Center
09:42PM 39.7722 -112.0139 349° North 345 397 36,000  Level Salt Lake Center
09:43PM 39.8850 -112.0428 349° North 343 395 36,000  Level Salt Lake Center
09:44PM 39.9797 -112.0678 349° North 347 399 36,000  Level Salt Lake Center
09:45PM 40.0739 -112.0917 349° North 346 398 36,000  Level Salt Lake Center
09:46PM 40.1686 -112.1167 349° North 345 397 36,000  Level Salt Lake Center
09:47PM 40.2639 -112.1408 349° North 348 400 36,000  Level Salt Lake Center
09:48PM 40.3583 -112.1664 348° North 346 398 36,000  Level Salt Lake Center
09:49PM 40.4536 -112.1717 358° North 343 395 36,000  Level Salt Lake Center
09:50PM 40.5489 -112.1647 North 341 392 36,000  Level Salt Lake Center
09:51PM 40.6628 -112.1603 North 340 391 36,000  Level Salt Lake Center
09:52PM 40.7575 -112.1892 347° North 344 396 36,000  Level Salt Lake Center
09:53PM 40.8522 -112.2147 348° North 345 397 36,000  Level Salt Lake Center
09:54PM 40.9464 -112.2414 348° North 344 396 36,000  Level Salt Lake Center
09:55PM 41.0414 -112.2678 348° North 345 397 36,000  Level Salt Lake Center
09:56PM 41.1358 -112.2950 348° North 344 396 36,000  Level Salt Lake Center
09:57PM 41.2303 -112.3214 348° North 346 398 36,000  Level Salt Lake Center
09:58PM 41.3253 -112.3483 348° North 348 400 36,000  Level Salt Lake Center
09:59PM 41.4206 -112.3750 348° North 347 399 36,000  Level Salt Lake Center
10:00PM 41.5153 -112.4019 348° North 347 399 36,000  Level Salt Lake Center
10:01PM 41.6286 -112.4358 347° North 346 398 36,000  Level Salt Lake Center
10:02PM 41.7239 -112.4619 348° North 349 402 36,000  Level Salt Lake Center
10:03PM 41.8169 -112.4892 348° North 345 397 36,000  Level Salt Lake Center
10:04PM 41.9117 -112.5158 348° North 346 398 36,000  Level Salt Lake Center
10:05PM 42.0067 -112.5422 348° North 347 399 36,000  Level Salt Lake Center
10:06PM 42.1019 -112.5706 348° North 349 402 36,000  Level Salt Lake Center
10:07PM 42.1967 -112.5978 348° North 348 400 36,000  Level Salt Lake Center
10:08PM 42.2906 -112.6264 347° North 346 398 36,000  Level Salt Lake Center
10:09PM 42.4042 -112.6586 348° North 349 402 36,000  Level Salt Lake Center
10:10PM 42.4989 -112.6842 349° North 348 400 36,000  Level Salt Lake Center
10:11PM 42.5936 -112.7142 347° North 350 403 36,000  Level Salt Lake Center
10:12PM 42.6933 -112.7439 348° North 348 400 36,000  Level Salt Lake Center
10:13PM 42.7850 -112.7697 348° North 350 403 36,000  Level Salt Lake Center
10:14PM 42.8769 -112.7975 348° North 351 404 36,000  Level Salt Lake Center
10:16PM 42.9847 -112.8308 347° North 356 410 36,000  Level Salt Lake Center
10:17PM 43.0758 -112.8561 349° North 352 405 36,000  Level Salt Lake Center
10:18PM 43.1828 -112.8894 347° North 351 404 36,000  Level Salt Lake Center
10:19PM 43.2747 -112.9161 348° North 351 404 36,000  Level Salt Lake Center
10:20PM 43.3664 -112.9447 347° North 352 405 36,000  Level Salt Lake Center
10:21PM 43.4736 -112.9764 348° North 351 404 36,000  Level Salt Lake Center
10:22PM 43.5642 -113.0047 347° North 348 400 36,000  Level Salt Lake Center
10:23PM 43.6700 -113.0375 347° North 349 402 36,000  Level Salt Lake Center
10:24PM 43.7597 -113.0647 348° North 346 398 36,000  Level Salt Lake Center
10:25PM 43.8503 -113.0914 348° North 346 398 36,000  Level Salt Lake Center
10:26PM 43.9547 -113.1244 347° North 344 396 36,000  Level Salt Lake Center
10:27PM 44.0450 -113.1528 347° North 345 397 36,000  Level Salt Lake Center
10:28PM 44.1353 -113.1817 347° North 348 400 36,000  Level Salt Lake Center
10:29PM 44.2383 -113.2139 347° North 342 394 36,000  Level Salt Lake Center
10:30PM 44.3308 -113.2408 348° North 351 404 36,000  Level Salt Lake Center
10:31PM 44.4356 -113.2744 347° North 348 400 36,000  Level Salt Lake Center
10:32PM 44.5214 -113.3014 347° North 337 388 36,000  Level Salt Lake Center
10:33PM 44.6092 -113.3303 347° North 337 388 36,000  Level Salt Lake Center
10:34PM 44.7131 -113.3622 348° North 340 391 36,000  Level Salt Lake Center
10:35PM 44.8022 -113.3914 347° North 344 396 36,000  Level Salt Lake Center
10:36PM 44.8903 -113.4183 348° North 339 390 36,000  Level Salt Lake Center
10:37PM 44.9936 -113.4517 347° North 341 392 36,000  Level Salt Lake Center
10:38PM 45.0828 -113.4811 347° North 341 392 36,000  Level Salt Lake Center
10:39PM 45.1858 -113.5144 347° North 341 392 36,000  Level Salt Lake Center
10:40PM 45.2750 -113.5433 347° North 343 395 36,000 -600 Level Salt Lake Center
10:41PM 45.3772 -113.5764 347° North 350 403 34,800 -1,320 Descending Salt Lake Center
10:42PM 45.4769 -113.6094 347° North 359 413 33,300 -1,440 Descending Salt Lake Center
10:43PM 45.5708 -113.6389 348° North 361 415 31,900 -1,500 Descending Salt Lake Center
10:44PM 45.6689 -113.6681 348° North 364 419 30,300 -1,560 Descending Salt Lake Center
10:45PM 45.7686 -113.6994 348° North 367 422 28,800 -1,560 Descending Salt Lake Center
10:46PM 45.8700 -113.7347 346° North 373 429 27,200 -1,800 Descending Salt Lake Center
10:47PM 45.9711 -113.7708 346° North 375 432 25,200 -2,040 Descending Salt Lake Center
10:48PM 46.0678 -113.8028 347° North 361 415 23,100 -2,460 Descending Salt Lake Center
10:49PM 46.1872 -113.8394 348° North 367 422 20,200 -2,580 Descending Salt Lake Center
10:50PM 46.2814 -113.8742 346° North 354 407 17,900 -2,340 Descending Salt Lake Center
10:51PM 46.3764 -113.9056 347° North 324 373 15,500 -2,400 Descending Salt Lake Center
10:52PM 46.4569 -113.9311 348° North 302 348 13,000 -1,980 Descending Salt Lake Center
10:53PM 46.5358 -113.9581 347° North 294 338 11,500 -1,440 Descending Salt Lake Center
10:54PM 46.6169 -113.9867 346° North 299 344 10,100 -1,320 Descending Salt Lake Center
10:55PM 46.6900 -114.0342 336° Northwest 267 307 8,900 -1,560 Descending Salt Lake Center
10:56PM 46.7561 -114.0611 344° North 247 284 7,000 -1,440 Descending Salt Lake Center
10:57PM 46.8136 -114.0583 North 213 245 6,000 -1,200 Descending Salt Lake Center
10:58PM 46.8614 -114.0408 14° North 165 190 4,600 -1,080 Descending Salt Lake Center
10:59PM 46.8922 -114.0503 348° North 121 139 3,800 -660 Descending Salt Lake Center
11:00PM 46.9108 -114.0833 310° West 108 124 3,300 -540 Descending Salt Lake Center
11:02PM 46.9000 -114.0833 North  Level FlightAware Approximate